aviador You're here:

KSBP Decoded Metar

SAN LUIS OBISPO in CA, USA
Report Time2018-02-25 14:56:00
UTC Time2018-02-25 15:31:06
Flight Rules vfr VFR
Wind160° at 05 kt
W.Decomp.*RWY 11: 4.1 kt HW 2.9 kt RCW
RWY 07: 1.3 kt HW 4.8 kt RCW
W.Rank160° ranks 17
Current wind is above 160° avg. (4.6)
Visibility9999 m
Phenomena:N/A
Clouds:N/A
Expected CloudBase > 2,000 ft AGL from Temp-Dew spread
CeilingNone
Temp07°C (ISA -8)
Dew Point02°C (71% RH)
AAT3.5°C
QNH1025 hPa
Density Alt-1,030 ft
Elevation194 ft
Report Wrong Elevation
Raw Report
KSBP 251456Z 16005KT 10SM CLR 07/02 A3026 RMK AO2 SLP248 T00720017
55001=

Extra information for KSBP:More info

Metar Taf Metar & Taf Last 4 Metars F.Rules Stats Wind Profile Meteogram Temp Stats Airport Information Weather charts Add Link Nearby VenuesMetar ALERT Operation Metar Decoded Social comments

AIRNAV info for KSBP